Time;durP1;ratioP1;P1;durP2;ratioP2;P2;SDS_P1;SDS_P2;PMS_P1;PMS_P2;Temp;Humidity;BMP_temperature;BMP_pressure;BME280_temperature;BME280_humidity;BME280_pressure;Samples;Min_cycle;Max_cycle;Signal;HPM_P1;HPM_P2
2023/10/26 00:00:36;;;;;;;27.05;17.63;;;;;;;;;;5045507;28;20095;-71
2023/10/26 00:03:03;;;;;;;31.17;18.95;;;;;;;;;;5048969;28;20272;-71
2023/10/26 00:05:31;;;;;;;26.58;16.98;;;;;;;;;;5036138;28;20053;-72
2023/10/26 00:07:58;;;;;;;26.52;16.95;;;;;;;;;;5044155;28;20425;-71
2023/10/26 00:10:25;;;;;;;26.88;18.05;;;;;;;;;;5054884;28;20045;-69
2023/10/26 00:12:52;;;;;;;30.98;17.80;;;;;;;;;;5038393;28;20437;-71
2023/10/26 00:15:18;;;;;;;23.10;15.57;;;;;;;;;;5043517;28;20141;-69
2023/10/26 00:17:45;;;;;;;30.60;18.85;;;;;;;;;;5044622;28;20059;-69
2023/10/26 00:20:13;;;;;;;26.15;17.67;;;;;;;;;;5036016;28;20060;-70
2023/10/26 00:22:39;;;;;;;29.63;16.98;;;;;;;;;;5048239;28;20569;-76
2023/10/26 00:25:07;;;;;;;24.48;16.73;;;;;;;;;;5039039;28;20037;-71
2023/10/26 00:27:34;;;;;;;32.25;17.05;;;;;;;;;;5044366;28;20862;-70
2023/10/26 00:30:01;;;;;;;26.13;16.45;;;;;;;;;;5041437;28;20713;-72
2023/10/26 00:32:28;;;;;;;25.30;17.10;;;;;;;;;;5047993;28;20518;-72
2023/10/26 00:34:55;;;;;;;27.45;16.60;;;;;;;;;;5041537;28;20056;-71
2023/10/26 00:37:22;;;;;;;30.75;18.63;;;;;;;;;;5030211;28;20488;-71
2023/10/26 00:39:49;;;;;;;27.13;18.75;;;;;;;;;;5047001;28;20737;-71
2023/10/26 00:42:16;;;;;;;28.05;19.33;;;;;;;;;;5036565;28;20565;-71
2023/10/26 00:44:46;;;;;;;32.00;19.13;;;;;;;;;;5041112;28;20052;-70
2023/10/26 00:47:13;;;;;;;27.90;17.95;;;;;;;;;;5040007;28;20059;-72
2023/10/26 00:49:43;;;;;;;27.75;17.40;;;;;;;;;;5045483;28;20045;-71
2023/10/26 00:52:11;;;;;;;25.45;16.50;;;;;;;;;;5039267;28;20052;-70
2023/10/26 00:54:41;;;;;;;29.80;17.95;;;;;;;;;;5044717;28;20080;-71
2023/10/26 00:57:08;;;;;;;27.42;17.67;;;;;;;;;;5046202;28;20509;-70
2023/10/26 00:59:35;;;;;;;30.65;18.30;;;;;;;;;;5043160;28;20132;-71
2023/10/26 01:02:02;;;;;;;27.73;17.08;;;;;;;;;;5046834;28;20111;-71
2023/10/26 01:04:29;;;;;;;26.15;17.33;;;;;;;;;;5040021;28;20120;-72
2023/10/26 01:06:56;;;;;;;25.52;17.38;;;;;;;;;;5048824;28;20508;-71
2023/10/26 01:09:22;;;;;;;28.60;18.85;;;;;;;;;;5046755;28;20088;-72
2023/10/26 01:11:49;;;;;;;29.70;18.35;;;;;;;;;;5043843;28;20044;-72
2023/10/26 01:14:15;;;;;;;33.00;17.83;;;;;;;;;;5037323;28;20107;-72
2023/10/26 01:16:42;;;;;;;28.90;19.20;;;;;;;;;;5055036;28;20411;-72
2023/10/26 01:19:09;;;;;;;34.80;19.58;;;;;;;;;;5036449;28;20049;-73
2023/10/26 01:21:49;;;;;;;31.48;18.50;;;;;;;;;;5042596;28;20052;-73
2023/10/26 01:24:15;;;;;;;32.75;19.98;;;;;;;;;;5026424;28;20111;-75
2023/10/26 01:26:42;;;;;;;29.05;16.95;;;;;;;;;;5031311;28;20064;-74
2023/10/26 01:29:08;;;;;;;30.52;18.35;;;;;;;;;;5037776;28;20390;-73
2023/10/26 01:31:35;;;;;;;33.15;19.55;;;;;;;;;;5033802;28;20053;-73
2023/10/26 01:34:01;;;;;;;37.53;20.15;;;;;;;;;;5046792;28;20045;-73
2023/10/26 01:36:28;;;;;;;31.98;19.17;;;;;;;;;;5037996;28;20128;-74
2023/10/26 01:38:55;;;;;;;31.58;19.25;;;;;;;;;;5045846;28;20150;-72
2023/10/26 01:41:21;;;;;;;36.33;19.85;;;;;;;;;;5030268;28;20702;-74
2023/10/26 01:43:48;;;;;;;34.15;20.08;;;;;;;;;;5061400;28;20394;-73
2023/10/26 01:46:14;;;;;;;34.35;19.90;;;;;;;;;;5039533;28;20052;-74
2023/10/26 01:48:41;;;;;;;31.52;19.20;;;;;;;;;;5044268;28;20536;-73
2023/10/26 01:51:08;;;;;;;32.22;18.63;;;;;;;;;;5029300;28;20045;-72
2023/10/26 01:53:34;;;;;;;31.55;18.20;;;;;;;;;;5030578;28;20056;-73
2023/10/26 01:56:01;;;;;;;31.83;19.58;;;;;;;;;;5033954;28;20132;-72
2023/10/26 01:58:27;;;;;;;33.13;18.30;;;;;;;;;;5042361;28;20037;-73
2023/10/26 02:00:53;;;;;;;27.88;17.52;;;;;;;;;;5030527;28;20574;-73
2023/10/26 02:03:20;;;;;;;27.73;17.65;;;;;;;;;;5045017;28;20135;-72
2023/10/26 02:05:47;;;;;;;30.85;17.48;;;;;;;;;;5034676;28;20049;-73
2023/10/26 02:08:13;;;;;;;31.58;18.02;;;;;;;;;;5044802;28;20069;-74
2023/10/26 02:10:41;;;;;;;28.95;17.02;;;;;;;;;;5032248;28;20161;-73
2023/10/26 02:13:07;;;;;;;28.38;17.77;;;;;;;;;;5038847;28;20312;-73
2023/10/26 02:15:34;;;;;;;34.95;17.45;;;;;;;;;;5055113;28;20320;-72
2023/10/26 02:18:01;;;;;;;26.83;17.92;;;;;;;;;;5045075;28;20053;-71
2023/10/26 02:20:27;;;;;;;27.92;16.80;;;;;;;;;;5037317;28;20049;-71
2023/10/26 02:22:54;;;;;;;27.67;16.85;;;;;;;;;;5034516;28;20128;-72
2023/10/26 02:25:20;;;;;;;26.40;15.80;;;;;;;;;;5044072;28;20135;-73
2023/10/26 02:27:47;;;;;;;25.40;16.20;;;;;;;;;;5045044;28;20072;-74
2023/10/26 02:30:13;;;;;;;26.23;16.13;;;;;;;;;;5039274;28;20104;-72
2023/10/26 02:32:40;;;;;;;22.55;15.82;;;;;;;;;;5031332;28;20049;-72
2023/10/26 02:35:07;;;;;;;28.25;17.00;;;;;;;;;;5055445;28;20042;-74
2023/10/26 02:37:38;;;;;;;33.85;17.02;;;;;;;;;;5054478;28;20229;-73
2023/10/26 02:40:05;;;;;;;26.48;16.85;;;;;;;;;;5041338;28;20049;-73
2023/10/26 02:42:33;;;;;;;28.88;16.75;;;;;;;;;;5045569;28;20053;-71
2023/10/26 02:44:59;;;;;;;25.73;14.90;;;;;;;;;;5035928;28;20049;-74
2023/10/26 02:47:26;;;;;;;26.85;15.82;;;;;;;;;;5054867;28;20430;-72
2023/10/26 02:49:52;;;;;;;30.58;17.65;;;;;;;;;;5034782;28;20493;-73
2023/10/26 02:52:18;;;;;;;26.92;14.65;;;;;;;;;;5045386;28;20064;-74
2023/10/26 02:54:45;;;;;;;28.00;17.15;;;;;;;;;;5038616;28;20063;-74
2023/10/26 02:57:14;;;;;;;24.30;15.90;;;;;;;;;;5040270;28;20091;-74
2023/10/26 02:59:40;;;;;;;26.08;15.75;;;;;;;;;;5042827;28;20222;-75
2023/10/26 03:02:08;;;;;;;29.25;16.15;;;;;;;;;;5036230;28;20056;-75
2023/10/26 03:04:37;;;;;;;26.77;16.08;;;;;;;;;;5039736;28;20057;-74
2023/10/26 03:07:04;;;;;;;27.50;15.15;;;;;;;;;;5042717;28;20033;-73
2023/10/26 03:09:31;;;;;;;25.48;14.43;;;;;;;;;;5049381;28;20053;-73
2023/10/26 03:11:58;;;;;;;28.75;16.63;;;;;;;;;;5032878;28;20045;-73
2023/10/26 03:14:25;;;;;;;27.05;15.63;;;;;;;;;;5035510;28;20074;-72
2023/10/26 03:16:52;;;;;;;24.02;14.65;;;;;;;;;;5029846;28;20096;-72
2023/10/26 03:19:18;;;;;;;24.30;14.65;;;;;;;;;;5063672;28;20048;-72
2023/10/26 03:21:45;;;;;;;23.92;14.13;;;;;;;;;;5037819;28;20136;-73
2023/10/26 03:24:11;;;;;;;25.33;14.52;;;;;;;;;;5063865;28;20473;-73
2023/10/26 03:26:38;;;;;;;19.67;13.88;;;;;;;;;;5035253;28;20140;-73
2023/10/26 03:29:04;;;;;;;26.35;16.38;;;;;;;;;;5048231;28;20118;-72
2023/10/26 03:31:33;;;;;;;26.40;14.70;;;;;;;;;;5039935;28;20052;-73
2023/10/26 03:33:59;;;;;;;24.10;14.43;;;;;;;;;;5049992;28;20052;-72
2023/10/26 03:36:26;;;;;;;22.17;13.85;;;;;;;;;;5049185;28;20053;-73
2023/10/26 03:38:53;;;;;;;22.63;14.13;;;;;;;;;;5046550;28;20057;-72
2023/10/26 03:41:19;;;;;;;23.08;13.52;;;;;;;;;;5037495;28;20052;-72
2023/10/26 03:43:50;;;;;;;26.92;15.00;;;;;;;;;;5042115;28;20052;-72
2023/10/26 03:46:16;;;;;;;22.40;14.00;;;;;;;;;;5033757;28;20533;-73
2023/10/26 03:48:43;;;;;;;24.98;14.18;;;;;;;;;;5043837;28;20622;-75
2023/10/26 03:51:09;;;;;;;23.75;13.40;;;;;;;;;;5041116;28;20481;-75
2023/10/26 03:53:36;;;;;;;27.15;15.88;;;;;;;;;;5033674;28;20141;-75
2023/10/26 03:56:03;;;;;;;26.55;15.13;;;;;;;;;;5036736;28;20322;-74
2023/10/26 03:58:29;;;;;;;24.25;15.02;;;;;;;;;;5038372;28;20076;-74
2023/10/26 04:00:57;;;;;;;21.42;13.73;;;;;;;;;;5045883;28;20533;-75
2023/10/26 04:03:25;;;;;;;22.95;13.07;;;;;;;;;;5047814;28;20099;-75
2023/10/26 04:05:52;;;;;;;28.67;15.43;;;;;;;;;;5030586;28;20099;-75
2023/10/26 04:08:19;;;;;;;27.65;14.65;;;;;;;;;;5047454;28;20048;-76
2023/10/26 04:10:45;;;;;;;25.13;14.90;;;;;;;;;;5034529;28;20050;-76
2023/10/26 04:13:11;;;;;;;27.25;14.25;;;;;;;;;;5043129;28;20111;-75
2023/10/26 04:15:38;;;;;;;29.73;16.85;;;;;;;;;;5036539;28;20131;-76
2023/10/26 04:18:05;;;;;;;26.75;15.00;;;;;;;;;;5048644;28;20144;-75
2023/10/26 04:20:32;;;;;;;27.15;15.23;;;;;;;;;;5056006;28;20076;-74
2023/10/26 04:22:59;;;;;;;28.75;15.45;;;;;;;;;;5044083;28;20216;-75
2023/10/26 04:25:28;;;;;;;29.92;15.90;;;;;;;;;;5054259;28;20639;-75
2023/10/26 04:28:18;;;;;;;27.45;14.55;;;;;;;;;;5060165;28;20055;-75
2023/10/26 04:30:47;;;;;;;25.65;14.52;;;;;;;;;;5032517;28;20390;-73
2023/10/26 04:33:14;;;;;;;26.60;15.63;;;;;;;;;;5028754;28;20049;-75
2023/10/26 04:35:41;;;;;;;31.08;16.55;;;;;;;;;;5035587;28;20060;-74
2023/10/26 04:38:08;;;;;;;31.63;16.45;;;;;;;;;;5040891;28;20144;-76
2023/10/26 04:40:38;;;;;;;26.02;14.30;;;;;;;;;;5041776;28;20056;-74
2023/10/26 04:43:06;;;;;;;27.50;14.50;;;;;;;;;;5058630;28;20044;-74
2023/10/26 04:45:33;;;;;;;23.20;14.00;;;;;;;;;;5046819;28;20139;-74
2023/10/26 04:48:00;;;;;;;25.35;13.68;;;;;;;;;;5049480;28;20509;-73
2023/10/26 04:50:29;;;;;;;22.38;12.75;;;;;;;;;;5035162;28;20453;-73
2023/10/26 04:52:56;;;;;;;25.80;13.65;;;;;;;;;;5036883;28;20060;-74
2023/10/26 04:55:22;;;;;;;27.23;14.73;;;;;;;;;;5039222;28;20140;-72
2023/10/26 04:57:49;;;;;;;23.73;14.00;;;;;;;;;;5036148;28;20045;-73
2023/10/26 05:00:15;;;;;;;26.40;14.60;;;;;;;;;;5027232;28;20069;-73
2023/10/26 05:02:42;;;;;;;22.88;14.30;;;;;;;;;;5032537;28;20052;-73
2023/10/26 05:05:09;;;;;;;24.42;14.13;;;;;;;;;;5040649;28;20132;-73
2023/10/26 05:07:36;;;;;;;22.23;13.02;;;;;;;;;;5040742;28;20053;-72
2023/10/26 05:10:05;;;;;;;22.60;13.27;;;;;;;;;;5042015;28;20131;-72
2023/10/26 05:12:31;;;;;;;23.42;13.10;;;;;;;;;;5044897;28;20138;-72
2023/10/26 05:14:58;;;;;;;22.48;13.77;;;;;;;;;;5036544;28;20041;-74
2023/10/26 05:17:24;;;;;;;25.95;15.27;;;;;;;;;;5041144;28;20049;-75
2023/10/26 05:19:51;;;;;;;23.00;13.43;;;;;;;;;;5052273;28;20052;-74
2023/10/26 05:22:19;;;;;;;23.23;13.32;;;;;;;;;;5045798;28;20096;-75
2023/10/26 05:24:45;;;;;;;21.95;13.10;;;;;;;;;;5039079;28;20057;-74
2023/10/26 05:27:12;;;;;;;20.48;12.55;;;;;;;;;;5040452;28;20209;-74
2023/10/26 05:29:38;;;;;;;20.08;12.25;;;;;;;;;;5043927;28;20088;-75
2023/10/26 05:32:05;;;;;;;22.00;13.50;;;;;;;;;;5031768;28;20143;-73
2023/10/26 05:34:31;;;;;;;27.23;14.60;;;;;;;;;;5052187;28;20045;-73
2023/10/26 05:36:58;;;;;;;23.60;13.63;;;;;;;;;;5052553;28;20149;-72
2023/10/26 05:39:24;;;;;;;21.20;12.95;;;;;;;;;;5045946;28;20057;-72
2023/10/26 05:41:54;;;;;;;21.08;12.25;;;;;;;;;;5026903;28;20510;-72
2023/10/26 05:44:21;;;;;;;22.92;14.32;;;;;;;;;;5038609;28;20061;-71
2023/10/26 05:46:47;;;;;;;24.77;14.18;;;;;;;;;;5048173;28;20049;-71
2023/10/26 05:49:14;;;;;;;30.83;15.13;;;;;;;;;;5060750;28;20049;-72
2023/10/26 05:51:42;;;;;;;36.83;18.75;;;;;;;;;;5032805;28;20106;-72
2023/10/26 05:54:08;;;;;;;28.17;15.73;;;;;;;;;;5046053;28;20052;-71
2023/10/26 05:56:36;;;;;;;26.48;14.25;;;;;;;;;;5030758;28;20445;-72
2023/10/26 05:59:03;;;;;;;27.73;14.23;;;;;;;;;;5061155;28;20045;-72
2023/10/26 06:01:30;;;;;;;24.55;14.43;;;;;;;;;;5036487;28;20049;-71
2023/10/26 06:03:56;;;;;;;25.52;13.98;;;;;;;;;;5045018;28;20049;-71
2023/10/26 06:06:23;;;;;;;26.20;14.15;;;;;;;;;;5028565;28;20049;-71
2023/10/26 06:08:49;;;;;;;28.60;14.63;;;;;;;;;;5040582;28;20045;-71
2023/10/26 06:11:16;;;;;;;25.33;14.48;;;;;;;;;;5035081;28;20076;-73
2023/10/26 06:13:43;;;;;;;24.67;14.25;;;;;;;;;;5038453;28;20042;-70
2023/10/26 06:16:15;;;;;;;26.45;14.13;;;;;;;;;;5029704;28;20061;-71
2023/10/26 06:18:42;;;;;;;28.30;14.70;;;;;;;;;;5038238;28;20057;-71
2023/10/26 06:21:09;;;;;;;24.63;14.98;;;;;;;;;;5033666;28;20088;-71
2023/10/26 06:23:35;;;;;;;25.92;15.65;;;;;;;;;;5040158;28;20049;-73
2023/10/26 06:26:03;;;;;;;26.20;15.35;;;;;;;;;;5035049;28;20138;-73
2023/10/26 06:28:29;;;;;;;26.67;16.55;;;;;;;;;;5033851;28;20103;-73
2023/10/26 06:31:06;;;;;;;24.77;15.15;;;;;;;;;;5035945;28;20048;-71
2023/10/26 06:33:33;;;;;;;27.30;15.85;;;;;;;;;;5041724;28;20546;-71
2023/10/26 06:36:00;;;;;;;26.38;15.82;;;;;;;;;;5039985;28;20107;-71
2023/10/26 06:38:27;;;;;;;37.45;17.33;;;;;;;;;;5040195;28;20569;-71
2023/10/26 06:40:54;;;;;;;30.15;17.63;;;;;;;;;;5045668;28;20148;-71
2023/10/26 06:43:24;;;;;;;26.55;15.40;;;;;;;;;;5045938;28;20049;-71
2023/10/26 06:45:51;;;;;;;26.00;14.98;;;;;;;;;;5058477;28;20128;-73
2023/10/26 06:48:20;;;;;;;25.15;16.38;;;;;;;;;;5064203;28;20049;-72
2023/10/26 06:50:47;;;;;;;29.35;17.55;;;;;;;;;;5035384;28;20107;-73
2023/10/26 06:53:14;;;;;;;32.90;18.02;;;;;;;;;;5047014;28;20076;-71
2023/10/26 06:55:41;;;;;;;30.08;18.65;;;;;;;;;;5037260;28;20145;-71
2023/10/26 06:58:07;;;;;;;35.15;19.23;;;;;;;;;;5048701;28;20402;-73
2023/10/26 07:00:34;;;;;;;32.78;17.95;;;;;;;;;;5034326;28;20121;-71
2023/10/26 07:03:01;;;;;;;32.72;18.73;;;;;;;;;;5043459;28;20071;-71
2023/10/26 07:05:28;;;;;;;35.08;17.92;;;;;;;;;;5029737;28;20814;-71
2023/10/26 07:07:55;;;;;;;27.95;17.67;;;;;;;;;;5028461;28;20099;-72
2023/10/26 07:10:21;;;;;;;31.10;18.02;;;;;;;;;;5036092;28;20049;-73
2023/10/26 07:12:48;;;;;;;30.00;17.65;;;;;;;;;;5045125;28;20363;-73
2023/10/26 07:15:14;;;;;;;26.83;16.38;;;;;;;;;;5036962;28;20041;-72
2023/10/26 07:17:41;;;;;;;26.20;16.58;;;;;;;;;;5038515;28;20135;-73
2023/10/26 07:20:07;;;;;;;27.88;17.75;;;;;;;;;;5042610;28;20107;-73
2023/10/26 07:22:35;;;;;;;25.52;16.95;;;;;;;;;;5057548;28;20055;-73
2023/10/26 07:25:02;;;;;;;26.08;16.65;;;;;;;;;;5058345;28;20321;-72
2023/10/26 07:27:29;;;;;;;28.70;16.55;;;;;;;;;;5029141;28;20127;-70
2023/10/26 07:29:56;;;;;;;26.35;17.13;;;;;;;;;;5040140;28;20056;-75
2023/10/26 07:32:22;;;;;;;26.42;15.98;;;;;;;;;;5047648;28;20107;-73
2023/10/26 07:34:50;;;;;;;30.67;17.88;;;;;;;;;;5044844;28;20612;-73
2023/10/26 07:37:17;;;;;;;30.00;16.40;;;;;;;;;;5039094;28;20385;-73
2023/10/26 07:39:43;;;;;;;28.52;16.40;;;;;;;;;;5061122;28;20106;-73
2023/10/26 07:42:14;;;;;;;27.60;15.93;;;;;;;;;;5047716;28;20041;-73
2023/10/26 07:44:41;;;;;;;23.60;14.68;;;;;;;;;;5061226;28;20056;-72
2023/10/26 07:47:08;;;;;;;24.65;14.80;;;;;;;;;;5043343;28;20045;-73
2023/10/26 07:49:35;;;;;;;27.02;14.30;;;;;;;;;;5030561;28;20510;-73
2023/10/26 07:52:02;;;;;;;24.35;14.60;;;;;;;;;;5043039;28;20135;-72
2023/10/26 07:54:28;;;;;;;24.38;15.05;;;;;;;;;;5027560;28;20581;-73
2023/10/26 07:56:55;;;;;;;27.83;15.52;;;;;;;;;;5041635;28;20430;-71
2023/10/26 07:59:21;;;;;;;25.48;14.65;;;;;;;;;;5040721;28;20053;-71
2023/10/26 08:01:48;;;;;;;23.67;13.50;;;;;;;;;;5048987;28;20059;-71
2023/10/26 08:04:15;;;;;;;20.55;13.30;;;;;;;;;;5045666;28;20071;-70
2023/10/26 08:06:41;;;;;;;24.92;13.98;;;;;;;;;;5042583;28;20068;-71
2023/10/26 08:09:08;;;;;;;20.83;13.02;;;;;;;;;;5035464;28;20343;-72
2023/10/26 08:11:34;;;;;;;22.65;12.85;;;;;;;;;;5035924;28;20056;-71
2023/10/26 08:14:01;;;;;;;26.30;14.38;;;;;;;;;;5037403;28;20521;-72
2023/10/26 08:16:27;;;;;;;24.42;13.90;;;;;;;;;;5041809;28;20099;-71
2023/10/26 08:19:10;;;;;;;20.42;13.07;;;;;;;;;;5047661;28;20073;-70
2023/10/26 08:21:37;;;;;;;27.70;13.27;;;;;;;;;;5032353;28;20136;-72
2023/10/26 08:24:03;;;;;;;23.45;14.38;;;;;;;;;;5039576;28;20099;-71
2023/10/26 08:26:30;;;;;;;19.17;12.00;;;;;;;;;;5040850;28;20045;-70
2023/10/26 08:28:56;;;;;;;21.33;12.23;;;;;;;;;;5047011;28;20072;-71
2023/10/26 08:31:39;;;;;;;20.70;12.70;;;;;;;;;;5039101;28;20049;-73
2023/10/26 08:34:08;;;;;;;20.33;11.88;;;;;;;;;;5045888;28;20557;-72
2023/10/26 08:36:35;;;;;;;21.75;12.75;;;;;;;;;;5032143;28;20049;-73
2023/10/26 08:39:02;;;;;;;25.88;14.15;;;;;;;;;;5047230;28;20075;-68
2023/10/26 08:41:32;;;;;;;18.55;12.15;;;;;;;;;;5041117;28;20053;-71
2023/10/26 08:44:00;;;;;;;22.75;12.98;;;;;;;;;;5046874;28;20508;-71
2023/10/26 08:46:28;;;;;;;21.23;13.60;;;;;;;;;;5041860;28;20053;-71
2023/10/26 08:48:56;;;;;;;17.30;11.80;;;;;;;;;;5057634;28;20048;-70
2023/10/26 08:51:23;;;;;;;19.60;12.65;;;;;;;;;;5039025;28;20136;-70
2023/10/26 08:53:49;;;;;;;23.58;14.15;;;;;;;;;;5054785;28;20053;-71
2023/10/26 08:56:20;;;;;;;26.15;15.07;;;;;;;;;;5030854;28;20501;-70
2023/10/26 08:58:48;;;;;;;25.33;15.25;;;;;;;;;;5043633;28;20045;-73
2023/10/26 09:01:15;;;;;;;29.23;16.40;;;;;;;;;;5045289;28;20056;-70
2023/10/26 09:03:44;;;;;;;25.80;16.48;;;;;;;;;;5035214;28;20175;-72
2023/10/26 09:06:11;;;;;;;26.30;15.07;;;;;;;;;;5038226;28;20053;-71
2023/10/26 09:08:38;;;;;;;25.02;15.88;;;;;;;;;;5040529;28;20045;-72
2023/10/26 09:11:22;;;;;;;24.38;15.02;;;;;;;;;;5032994;28;20045;-73
2023/10/26 09:13:52;;;;;;;28.42;16.55;;;;;;;;;;5031402;28;20102;-70
2023/10/26 09:16:36;;;;;;;28.35;16.67;;;;;;;;;;5030880;28;20061;-72
2023/10/26 09:19:05;;;;;;;25.42;15.48;;;;;;;;;;5040999;28;20132;-71
2023/10/26 09:21:56;;;;;;;29.88;17.02;;;;;;;;;;5048419;28;20047;-71
2023/10/26 09:24:26;;;;;;;25.92;15.77;;;;;;;;;;5046295;28;20052;-71
2023/10/26 09:27:03;;;;;;;25.92;15.60;;;;;;;;;;5044931;28;20057;-73
2023/10/26 09:29:38;;;;;;;23.73;15.07;;;;;;;;;;5044325;28;20045;-71
2023/10/26 09:32:08;;;;;;;30.60;16.70;;;;;;;;;;5037284;28;20453;-73
2023/10/26 09:34:42;;;;;;;25.63;15.02;;;;;;;;;;5040433;28;20137;-73
2023/10/26 09:37:09;;;;;;;27.02;13.77;;;;;;;;;;5030130;28;20527;-73
2023/10/26 09:39:37;;;;;;;24.50;14.57;;;;;;;;;;5043424;28;20084;-72
2023/10/26 09:42:09;;;;;;;22.73;14.32;;;;;;;;;;5038006;28;20136;-71
2023/10/26 09:44:38;;;;;;;24.95;14.43;;;;;;;;;;5032593;28;20095;-71
2023/10/26 09:47:06;;;;;;;25.50;15.68;;;;;;;;;;5031401;28;20053;-72
2023/10/26 09:49:33;;;;;;;23.65;14.75;;;;;;;;;;5037093;28;20055;-72
2023/10/26 09:52:00;;;;;;;24.80;14.70;;;;;;;;;;5040306;28;20119;-71
2023/10/26 09:54:28;;;;;;;23.45;14.50;;;;;;;;;;5041560;28;20117;-71
2023/10/26 09:56:58;;;;;;;28.23;15.23;;;;;;;;;;5029422;28;20052;-71
2023/10/26 09:59:25;;;;;;;27.25;16.15;;;;;;;;;;5022480;28;20136;-70
2023/10/26 10:01:51;;;;;;;35.45;16.45;;;;;;;;;;5034438;28;20069;-72
2023/10/26 10:04:33;;;;;;;26.17;15.32;;;;;;;;;;5043076;28;20052;-72
2023/10/26 10:07:02;;;;;;;24.17;14.68;;;;;;;;;;5041376;28;20147;-70
2023/10/26 10:09:29;;;;;;;30.13;15.68;;;;;;;;;;5030064;28;20079;-72
2023/10/26 10:12:13;;;;;;;28.20;15.55;;;;;;;;;;5035460;28;20048;-69
2023/10/26 10:14:54;;;;;;;29.10;15.98;;;;;;;;;;5038440;28;20102;-73
2023/10/26 10:18:00;;;;;;;24.90;15.50;;;;;;;;;;5036220;28;20092;-67
2023/10/26 10:20:27;;;;;;;25.98;15.70;;;;;;;;;;5040534;28;20045;-68
2023/10/26 10:22:58;;;;;;;28.35;15.75;;;;;;;;;;5040511;28;20484;-66
2023/10/26 10:25:47;;;;;;;23.25;14.82;;;;;;;;;;5039662;28;20072;-67
2023/10/26 10:28:14;;;;;;;21.38;14.68;;;;;;;;;;5037322;28;20403;-70
2023/10/26 10:30:50;;;;;;;28.50;16.17;;;;;;;;;;5036827;28;20053;-70
2023/10/26 10:33:21;;;;;;;23.15;14.52;;;;;;;;;;5038215;28;20056;-69
2023/10/26 10:35:53;;;;;;;22.88;15.10;;;;;;;;;;5036043;28;20041;-67
2023/10/26 10:38:20;;;;;;;25.33;14.60;;;;;;;;;;5046587;28;20128;-67
2023/10/26 10:40:53;;;;;;;25.67;14.40;;;;;;;;;;5034851;28;20128;-68
2023/10/26 10:43:32;;;;;;;27.52;15.32;;;;;;;;;;5033723;28;20045;-67
2023/10/26 10:46:28;;;;;;;23.45;15.00;;;;;;;;;;5047234;28;20438;-67
2023/10/26 10:49:04;;;;;;;21.52;14.07;;;;;;;;;;5036239;28;20056;-67
2023/10/26 10:51:41;;;;;;;26.08;13.68;;;;;;;;;;5037172;28;20049;-72
2023/10/26 10:54:12;;;;;;;21.27;13.85;;;;;;;;;;5042295;28;20053;-67
2023/10/26 10:56:59;;;;;;;21.13;14.60;;;;;;;;;;5047486;28;20041;-72
2023/10/26 10:59:26;;;;;;;24.95;15.27;;;;;;;;;;5049764;28;20085;-71
2023/10/26 11:02:09;;;;;;;28.23;15.45;;;;;;;;;;5028357;28;20053;-71
2023/10/26 11:04:55;;;;;;;23.75;14.65;;;;;;;;;;5034052;28;20107;-68
2023/10/26 11:07:34;;;;;;;22.17;14.25;;;;;;;;;;5042448;28;20041;-69
2023/10/26 11:10:03;;;;;;;24.55;16.00;;;;;;;;;;5041273;28;20034;-68
2023/10/26 11:12:30;;;;;;;23.52;14.70;;;;;;;;;;5032277;28;20053;-69
2023/10/26 11:14:56;;;;;;;20.02;14.25;;;;;;;;;;5044583;28;20046;-70
2023/10/26 11:17:24;;;;;;;19.70;13.68;;;;;;;;;;5033868;28;20133;-68
2023/10/26 11:19:50;;;;;;;21.67;12.88;;;;;;;;;;5039599;28;20037;-69
2023/10/26 11:22:18;;;;;;;18.10;12.32;;;;;;;;;;5033178;28;20144;-71
2023/10/26 11:24:44;;;;;;;20.58;13.05;;;;;;;;;;5045041;28;20094;-69
2023/10/26 11:27:13;;;;;;;22.45;12.95;;;;;;;;;;5036430;28;20501;-70
2023/10/26 11:29:40;;;;;;;19.95;13.80;;;;;;;;;;5034418;28;20774;-69
2023/10/26 11:32:34;;;;;;;21.73;12.95;;;;;;;;;;5031922;28;20128;-70
2023/10/26 11:35:03;;;;;;;19.48;12.80;;;;;;;;;;5026676;28;20042;-69
2023/10/26 11:37:29;;;;;;;20.35;12.40;;;;;;;;;;5031696;28;20061;-68
2023/10/26 11:39:57;;;;;;;21.25;12.98;;;;;;;;;;5028949;28;20088;-69
2023/10/26 11:42:43;;;;;;;23.55;13.23;;;;;;;;;;5042888;28;20515;-68
2023/10/26 11:45:11;;;;;;;21.95;12.98;;;;;;;;;;5039050;28;20088;-71
2023/10/26 11:47:57;;;;;;;18.42;11.68;;;;;;;;;;5044982;28;20686;-71
2023/10/26 11:50:28;;;;;;;21.25;12.65;;;;;;;;;;5038935;28;20541;-65
2023/10/26 11:52:56;;;;;;;22.63;11.98;;;;;;;;;;5031510;28;20049;-64
2023/10/26 11:55:25;;;;;;;18.50;10.70;;;;;;;;;;5036998;28;20387;-69
2023/10/26 11:57:55;;;;;;;21.45;11.38;;;;;;;;;;5040777;28;20060;-65
2023/10/26 12:00:21;;;;;;;19.02;12.25;;;;;;;;;;5038894;28;20052;-67
2023/10/26 12:02:48;;;;;;;17.48;11.32;;;;;;;;;;5050277;28;20501;-64
2023/10/26 12:05:16;;;;;;;15.48;11.13;;;;;;;;;;5029157;28;20045;-69
2023/10/26 12:07:43;;;;;;;14.75;10.27;;;;;;;;;;5046643;28;20076;-70
2023/10/26 12:10:10;;;;;;;15.75;10.93;;;;;;;;;;5031433;28;20421;-71
2023/10/26 12:12:37;;;;;;;14.75;10.30;;;;;;;;;;5046466;28;20055;-70
2023/10/26 12:15:04;;;;;;;15.90;10.10;;;;;;;;;;5035750;28;20049;-73
2023/10/26 12:17:31;;;;;;;15.27;10.10;;;;;;;;;;5026508;28;20709;-71
2023/10/26 12:19:57;;;;;;;16.90;10.68;;;;;;;;;;5027114;28;20233;-70
2023/10/26 12:22:24;;;;;;;17.40;11.55;;;;;;;;;;5037667;28;20041;-71
2023/10/26 12:24:50;;;;;;;17.92;12.18;;;;;;;;;;5031809;28;20037;-73
2023/10/26 12:27:18;;;;;;;17.58;11.82;;;;;;;;;;5029194;28;20065;-73
2023/10/26 12:29:45;;;;;;;16.67;10.98;;;;;;;;;;5033793;28;20047;-73
2023/10/26 12:32:13;;;;;;;18.15;12.43;;;;;;;;;;5036081;28;20038;-70
2023/10/26 12:34:40;;;;;;;18.67;11.73;;;;;;;;;;5025564;28;20076;-72
2023/10/26 12:37:07;;;;;;;17.50;11.15;;;;;;;;;;5030825;28;20124;-66
2023/10/26 12:39:34;;;;;;;20.10;12.63;;;;;;;;;;5027509;28;20050;-67
2023/10/26 12:42:01;;;;;;;21.00;12.10;;;;;;;;;;5029605;28;20041;-68
2023/10/26 12:44:27;;;;;;;18.15;11.65;;;;;;;;;;5027894;28;20461;-67
2023/10/26 12:46:54;;;;;;;20.17;11.90;;;;;;;;;;5030768;28;20044;-66
2023/10/26 12:49:23;;;;;;;18.23;11.50;;;;;;;;;;5032618;28;20064;-66
2023/10/26 12:51:50;;;;;;;26.95;13.02;;;;;;;;;;5026824;28;20118;-66
2023/10/26 12:54:18;;;;;;;19.60;12.48;;;;;;;;;;5029582;28;20065;-67
2023/10/26 12:56:47;;;;;;;18.80;12.02;;;;;;;;;;5029437;28;20261;-67
2023/10/26 12:59:15;;;;;;;17.90;12.07;;;;;;;;;;5041963;28;20056;-67
2023/10/26 13:01:43;;;;;;;25.95;13.40;;;;;;;;;;5049167;28;20136;-70
2023/10/26 13:04:09;;;;;;;20.23;12.15;;;;;;;;;;5028394;28;20042;-69
2023/10/26 13:06:38;;;;;;;19.65;12.48;;;;;;;;;;5034748;28;20041;-69
2023/10/26 13:09:05;;;;;;;23.10;13.45;;;;;;;;;;5035209;28;20042;-67
2023/10/26 13:11:32;;;;;;;21.55;13.82;;;;;;;;;;5035116;28;20135;-67
2023/10/26 13:14:05;;;;;;;23.60;14.10;;;;;;;;;;5030668;28;20036;-71
2023/10/26 13:16:34;;;;;;;19.30;12.32;;;;;;;;;;5040130;28;20049;-68
2023/10/26 13:19:22;;;;;;;25.85;14.35;;;;;;;;;;5026001;28;20422;-66
2023/10/26 13:21:49;;;;;;;19.88;12.30;;;;;;;;;;5036697;28;20049;-66
2023/10/26 13:24:15;;;;;;;26.20;14.40;;;;;;;;;;5029477;28;20643;-69
2023/10/26 13:26:45;;;;;;;21.13;13.52;;;;;;;;;;5035096;28;20041;-67
2023/10/26 13:29:26;;;;;;;21.98;14.07;;;;;;;;;;5032831;28;20041;-68
2023/10/26 13:31:58;;;;;;;21.00;13.00;;;;;;;;;;5046931;28;20057;-67
2023/10/26 13:34:24;;;;;;;24.48;14.23;;;;;;;;;;5028307;28;20482;-67
2023/10/26 13:36:50;;;;;;;21.80;13.65;;;;;;;;;;5032367;28;20087;-67
2023/10/26 13:39:17;;;;;;;22.23;11.98;;;;;;;;;;5037295;28;20060;-67
2023/10/26 13:41:44;;;;;;;19.95;11.73;;;;;;;;;;5026359;28;20041;-67
2023/10/26 13:44:10;;;;;;;19.48;12.00;;;;;;;;;;5031535;28;20049;-67
2023/10/26 13:46:37;;;;;;;21.95;12.43;;;;;;;;;;5036747;28;20394;-67
2023/10/26 13:49:05;;;;;;;23.40;12.75;;;;;;;;;;5028913;28;20144;-70
2023/10/26 13:51:33;;;;;;;18.05;11.43;;;;;;;;;;5039854;28;20077;-68
2023/10/26 13:54:00;;;;;;;22.00;12.32;;;;;;;;;;5043406;28;20478;-69
2023/10/26 13:56:29;;;;;;;18.77;10.82;;;;;;;;;;5030817;28;20056;-66
2023/10/26 13:58:57;;;;;;;18.15;11.77;;;;;;;;;;5030142;28;20088;-68
2023/10/26 14:01:28;;;;;;;19.45;11.68;;;;;;;;;;5036530;28;20128;-65
2023/10/26 14:04:02;;;;;;;19.50;10.60;;;;;;;;;;5030957;28;20064;-67
2023/10/26 14:06:29;;;;;;;20.77;12.68;;;;;;;;;;5026921;28;20463;-68
2023/10/26 14:08:58;;;;;;;20.20;12.52;;;;;;;;;;5027128;28;20057;-68
2023/10/26 14:11:26;;;;;;;25.15;11.95;;;;;;;;;;5036531;28;20049;-67
2023/10/26 14:13:55;;;;;;;22.23;12.68;;;;;;;;;;5028218;28;20046;-65
2023/10/26 14:16:28;;;;;;;21.13;12.80;;;;;;;;;;5045270;28;20087;-68
2023/10/26 14:19:08;;;;;;;21.58;11.60;;;;;;;;;;5030232;28;20111;-66
2023/10/26 14:21:42;;;;;;;25.83;13.48;;;;;;;;;;5031970;28;20052;-73
2023/10/26 14:24:10;;;;;;;25.08;14.02;;;;;;;;;;5030713;28;20042;-66